sensor_id;sensor_type;location;lat;lon;timestamp;pressure;altitude;pressure_sealevel;temperature
80962;BMP280;70424;55.154;14.722;2023-11-21T00:01:44;101074.78;;;5.31
80962;BMP280;70424;55.154;14.722;2023-11-21T00:04:09;101093.47;;;5.50
80962;BMP280;70424;55.154;14.722;2023-11-21T00:06:35;101106.47;;;5.51
80962;BMP280;70424;55.154;14.722;2023-11-21T00:09:00;101117.72;;;5.55
80962;BMP280;70424;55.154;14.722;2023-11-21T00:11:26;101127.13;;;5.54
80962;BMP280;70424;55.154;14.722;2023-11-21T00:13:51;101117.50;;;5.53
80962;BMP280;70424;55.154;14.722;2023-11-21T00:16:17;101129.47;;;5.58
80962;BMP280;70424;55.154;14.722;2023-11-21T00:18:42;101125.84;;;5.55
80962;BMP280;70424;55.154;14.722;2023-11-21T00:21:08;101122.78;;;5.59
80962;BMP280;70424;55.154;14.722;2023-11-21T00:23:34;101133.09;;;5.60
80962;BMP280;70424;55.154;14.722;2023-11-21T00:25:59;101133.81;;;5.61
80962;BMP280;70424;55.154;14.722;2023-11-21T00:28:25;101141.94;;;5.61
80962;BMP280;70424;55.154;14.722;2023-11-21T00:30:51;101120.41;;;5.48
80962;BMP280;70424;55.154;14.722;2023-11-21T00:33:16;101120.03;;;5.51
80962;BMP280;70424;55.154;14.722;2023-11-21T00:35:41;101129.63;;;5.60
80962;BMP280;70424;55.154;14.722;2023-11-21T00:38:07;101140.88;;;5.64
80962;BMP280;70424;55.154;14.722;2023-11-21T00:40:33;101137.97;;;5.62
80962;BMP280;70424;55.154;14.722;2023-11-21T00:42:59;101147.00;;;5.64
80962;BMP280;70424;55.154;14.722;2023-11-21T00:45:24;101129.25;;;5.48
80962;BMP280;70424;55.154;14.722;2023-11-21T00:47:50;101155.88;;;5.65
80962;BMP280;70424;55.154;14.722;2023-11-21T00:50:15;101156.09;;;5.67
80962;BMP280;70424;55.154;14.722;2023-11-21T00:52:41;101160.25;;;5.68
80962;BMP280;70424;55.154;14.722;2023-11-21T00:55:06;101147.56;;;5.63
80962;BMP280;70424;55.154;14.722;2023-11-21T00:57:32;101161.69;;;5.69
80962;BMP280;70424;55.154;14.722;2023-11-21T00:59:58;101149.00;;;5.64
80962;BMP280;70424;55.154;14.722;2023-11-21T01:02:23;101169.28;;;5.71
80962;BMP280;70424;55.154;14.722;2023-11-21T01:04:48;101164.59;;;5.71
80962;BMP280;70424;55.154;14.722;2023-11-21T01:07:14;101160.75;;;5.67
80962;BMP280;70424;55.154;14.722;2023-11-21T01:09:39;101171.28;;;5.70
80962;BMP280;70424;55.154;14.722;2023-11-21T01:12:05;101166.38;;;5.69
80962;BMP280;70424;55.154;14.722;2023-11-21T01:14:30;101146.09;;;5.54
80962;BMP280;70424;55.154;14.722;2023-11-21T01:16:55;101169.97;;;5.63
80962;BMP280;70424;55.154;14.722;2023-11-21T01:19:21;101156.22;;;5.54
80962;BMP280;70424;55.154;14.722;2023-11-21T01:21:49;101188.09;;;5.69
80962;BMP280;70424;55.154;14.722;2023-11-21T01:24:14;101194.06;;;5.67
80962;BMP280;70424;55.154;14.722;2023-11-21T01:26:40;101195.09;;;5.64
80962;BMP280;70424;55.154;14.722;2023-11-21T01:29:05;101200.19;;;5.68
80962;BMP280;70424;55.154;14.722;2023-11-21T01:31:31;101196.75;;;5.67
80962;BMP280;70424;55.154;14.722;2023-11-21T01:33:56;101186.06;;;5.61
80962;BMP280;70424;55.154;14.722;2023-11-21T01:36:22;101201.97;;;5.65
80962;BMP280;70424;55.154;14.722;2023-11-21T01:38:47;101195.47;;;5.60
80962;BMP280;70424;55.154;14.722;2023-11-21T01:41:15;101193.28;;;5.59
80962;BMP280;70424;55.154;14.722;2023-11-21T01:43:41;101202.34;;;5.61
80962;BMP280;70424;55.154;14.722;2023-11-21T01:46:08;101198.19;;;5.60
80962;BMP280;70424;55.154;14.722;2023-11-21T01:48:33;101198.19;;;5.60
80962;BMP280;70424;55.154;14.722;2023-11-21T01:50:59;101202.69;;;5.58
80962;BMP280;70424;55.154;14.722;2023-11-21T01:53:25;101199.06;;;5.55
80962;BMP280;70424;55.154;14.722;2023-11-21T01:55:51;101197.63;;;5.54
80962;BMP280;70424;55.154;14.722;2023-11-21T01:58:17;101191.63;;;5.48
80962;BMP280;70424;55.154;14.722;2023-11-21T02:00:42;101199.41;;;5.52
80962;BMP280;70424;55.154;14.722;2023-11-21T02:03:08;101196.69;;;5.52
80962;BMP280;70424;55.154;14.722;2023-11-21T02:05:35;101201.38;;;5.51
80962;BMP280;70424;55.154;14.722;2023-11-21T02:08:01;101182.00;;;5.40
80962;BMP280;70424;55.154;14.722;2023-11-21T02:10:27;101184.38;;;5.43
80962;BMP280;70424;55.154;14.722;2023-11-21T02:12:54;101211.50;;;5.51
80962;BMP280;70424;55.154;14.722;2023-11-21T02:15:21;101216.38;;;5.52
80962;BMP280;70424;55.154;14.722;2023-11-21T02:17:47;101227.06;;;5.50
80962;BMP280;70424;55.154;14.722;2023-11-21T02:20:23;101227.59;;;5.49
80962;BMP280;70424;55.154;14.722;2023-11-21T02:22:56;101239.69;;;5.48
80962;BMP280;70424;55.154;14.722;2023-11-21T02:25:29;101246.34;;;5.47
80962;BMP280;70424;55.154;14.722;2023-11-21T02:27:56;101240.75;;;5.45
80962;BMP280;70424;55.154;14.722;2023-11-21T02:30:22;101237.34;;;5.44
80962;BMP280;70424;55.154;14.722;2023-11-21T02:32:48;101246.72;;;5.43
80962;BMP280;70424;55.154;14.722;2023-11-21T02:35:14;101234.72;;;5.31
80962;BMP280;70424;55.154;14.722;2023-11-21T02:37:41;101253.19;;;5.40
80962;BMP280;70424;55.154;14.722;2023-11-21T02:40:09;101259.34;;;5.41
80962;BMP280;70424;55.154;14.722;2023-11-21T02:42:35;101269.69;;;5.42
80962;BMP280;70424;55.154;14.722;2023-11-21T02:45:00;101269.28;;;5.38
80962;BMP280;70424;55.154;14.722;2023-11-21T02:47:25;101271.66;;;5.42
80962;BMP280;70424;55.154;14.722;2023-11-21T02:49:51;101278.84;;;5.39
80962;BMP280;70424;55.154;14.722;2023-11-21T02:52:17;101266.69;;;5.32
80962;BMP280;70424;55.154;14.722;2023-11-21T02:54:42;101281.03;;;5.41
80962;BMP280;70424;55.154;14.722;2023-11-21T02:57:08;101279.81;;;5.42
80962;BMP280;70424;55.154;14.722;2023-11-21T02:59:33;101275.59;;;5.41
80962;BMP280;70424;55.154;14.722;2023-11-21T03:02:00;101283.25;;;5.42
80962;BMP280;70424;55.154;14.722;2023-11-21T03:04:25;101286.28;;;5.39
80962;BMP280;70424;55.154;14.722;2023-11-21T03:06:51;101300.75;;;5.41
80962;BMP280;70424;55.154;14.722;2023-11-21T03:09:16;101301.50;;;5.42
80962;BMP280;70424;55.154;14.722;2023-11-21T03:11:41;101289.66;;;5.31
80962;BMP280;70424;55.154;14.722;2023-11-21T03:14:07;101272.22;;;5.19
80962;BMP280;70424;55.154;14.722;2023-11-21T03:16:32;101299.69;;;5.44
80962;BMP280;70424;55.154;14.722;2023-11-21T03:18:58;101310.53;;;5.44
80962;BMP280;70424;55.154;14.722;2023-11-21T03:21:24;101314.50;;;5.43
80962;BMP280;70424;55.154;14.722;2023-11-21T03:23:50;101313.06;;;5.42
80962;BMP280;70424;55.154;14.722;2023-11-21T03:26:15;101321.19;;;5.42
80962;BMP280;70424;55.154;14.722;2023-11-21T03:28:41;101325.16;;;5.41
80962;BMP280;70424;55.154;14.722;2023-11-21T03:31:07;101316.63;;;5.37
80962;BMP280;70424;55.154;14.722;2023-11-21T03:33:34;101324.63;;;5.43
80962;BMP280;70424;55.154;14.722;2023-11-21T03:36:00;101320.78;;;5.38
80962;BMP280;70424;55.154;14.722;2023-11-21T03:38:25;101340.16;;;5.42
80962;BMP280;70424;55.154;14.722;2023-11-21T03:40:51;101345.59;;;5.42
80962;BMP280;70424;55.154;14.722;2023-11-21T03:43:16;101346.25;;;5.35
80962;BMP280;70424;55.154;14.722;2023-11-21T03:45:41;101362.72;;;5.37
80962;BMP280;70424;55.154;14.722;2023-11-21T03:48:07;101347.63;;;5.28
80962;BMP280;70424;55.154;14.722;2023-11-21T03:50:34;101375.53;;;5.37
80962;BMP280;70424;55.154;14.722;2023-11-21T03:52:59;101378.56;;;5.33
80962;BMP280;70424;55.154;14.722;2023-11-21T03:55:24;101359.78;;;5.14
80962;BMP280;70424;55.154;14.722;2023-11-21T03:57:50;101388.44;;;5.23
80962;BMP280;70424;55.154;14.722;2023-11-21T04:00:17;101392.91;;;5.20
80962;BMP280;70424;55.154;14.722;2023-11-21T04:02:42;101383.13;;;5.17
80962;BMP280;70424;55.154;14.722;2023-11-21T04:05:08;101388.03;;;5.19
80962;BMP280;70424;55.154;14.722;2023-11-21T04:07:34;101398.69;;;5.17
80962;BMP280;70424;55.154;14.722;2023-11-21T04:10:00;101378.44;;;4.97
80962;BMP280;70424;55.154;14.722;2023-11-21T04:12:25;101399.72;;;5.14
80962;BMP280;70424;55.154;14.722;2023-11-21T04:14:51;101373.75;;;4.97
80962;BMP280;70424;55.154;14.722;2023-11-21T04:17:18;101399.50;;;5.12
80962;BMP280;70424;55.154;14.722;2023-11-21T04:19:44;101373.53;;;4.95
80962;BMP280;70424;55.154;14.722;2023-11-21T04:22:11;101392.25;;;5.06
80962;BMP280;70424;55.154;14.722;2023-11-21T04:24:36;101376.78;;;4.94
80962;BMP280;70424;55.154;14.722;2023-11-21T04:27:02;101402.47;;;5.00
80962;BMP280;70424;55.154;14.722;2023-11-21T04:29:27;101399.56;;;4.98
80962;BMP280;70424;55.154;14.722;2023-11-21T04:31:53;101412.28;;;5.03
80962;BMP280;70424;55.154;14.722;2023-11-21T04:34:18;101414.25;;;5.03
80962;BMP280;70424;55.154;14.722;2023-11-21T04:36:46;101418.72;;;5.00
80962;BMP280;70424;55.154;14.722;2023-11-21T04:39:12;101412.59;;;5.00
80962;BMP280;70424;55.154;14.722;2023-11-21T04:41:37;101425.53;;;4.94
80962;BMP280;70424;55.154;14.722;2023-11-21T04:44:05;101428.25;;;4.94
80962;BMP280;70424;55.154;14.722;2023-11-21T04:46:31;101442.00;;;4.96
80962;BMP280;70424;55.154;14.722;2023-11-21T04:48:57;101442.00;;;4.96
80962;BMP280;70424;55.154;14.722;2023-11-21T04:51:22;101439.78;;;4.94
80962;BMP280;70424;55.154;14.722;2023-11-21T04:53:47;101445.94;;;4.95
80962;BMP280;70424;55.154;14.722;2023-11-21T04:56:13;101452.97;;;4.90
80962;BMP280;70424;55.154;14.722;2023-11-21T04:58:38;101448.47;;;4.93
80962;BMP280;70424;55.154;14.722;2023-11-21T05:01:05;101447.03;;;4.92
80962;BMP280;70424;55.154;14.722;2023-11-21T05:03:31;101443.38;;;4.89
80962;BMP280;70424;55.154;14.722;2023-11-21T05:05:57;101452.44;;;4.92
80962;BMP280;70424;55.154;14.722;2023-11-21T05:08:22;101469.41;;;4.92
80962;BMP280;70424;55.154;14.722;2023-11-21T05:10:47;101469.41;;;4.92
80962;BMP280;70424;55.154;14.722;2023-11-21T05:13:14;101477.56;;;4.92
80962;BMP280;70424;55.154;14.722;2023-11-21T05:15:42;101462.34;;;4.89
80962;BMP280;70424;55.154;14.722;2023-11-21T05:18:07;101471.19;;;4.90
80962;BMP280;70424;55.154;14.722;2023-11-21T05:20:33;101473.59;;;4.93
80962;BMP280;70424;55.154;14.722;2023-11-21T05:22:58;101472.31;;;4.94
80962;BMP280;70424;55.154;14.722;2023-11-21T05:25:24;101462.66;;;4.86
80962;BMP280;70424;55.154;14.722;2023-11-21T05:27:50;101453.69;;;4.77
80962;BMP280;70424;55.154;14.722;2023-11-21T05:30:15;101481.50;;;4.91
80962;BMP280;70424;55.154;14.722;2023-11-21T05:32:41;101477.13;;;4.88
80962;BMP280;70424;55.154;14.722;2023-11-21T05:35:10;101484.75;;;4.90
80962;BMP280;70424;55.154;14.722;2023-11-21T05:37:40;101489.94;;;4.88
80962;BMP280;70424;55.154;14.722;2023-11-21T05:40:07;101479.00;;;4.80
80962;BMP280;70424;55.154;14.722;2023-11-21T05:42:34;101503.91;;;4.92
80962;BMP280;70424;55.154;14.722;2023-11-21T05:44:59;101504.63;;;4.92
80962;BMP280;70424;55.154;14.722;2023-11-21T05:47:35;101505.69;;;4.89
80962;BMP280;70424;55.154;14.722;2023-11-21T05:50:00;101506.00;;;4.86
80962;BMP280;70424;55.154;14.722;2023-11-21T05:52:26;101501.31;;;4.86
80962;BMP280;70424;55.154;14.722;2023-11-21T05:54:51;101511.59;;;4.88
80962;BMP280;70424;55.154;14.722;2023-11-21T05:57:16;101486.13;;;4.70
80962;BMP280;70424;55.154;14.722;2023-11-21T05:59:42;101508.69;;;4.86
80962;BMP280;70424;55.154;14.722;2023-11-21T06:02:07;101521.41;;;4.91
80962;BMP280;70424;55.154;14.722;2023-11-21T06:04:33;101533.50;;;4.90
80962;BMP280;70424;55.154;14.722;2023-11-21T06:06:58;101517.44;;;4.78
80962;BMP280;70424;55.154;14.722;2023-11-21T06:09:23;101536.00;;;4.88
80962;BMP280;70424;55.154;14.722;2023-11-21T06:11:50;101537.69;;;4.91
80962;BMP280;70424;55.154;14.722;2023-11-21T06:14:15;101540.69;;;4.87
80962;BMP280;70424;55.154;14.722;2023-11-21T06:16:43;101551.75;;;4.89
80962;BMP280;70424;55.154;14.722;2023-11-21T06:19:10;101548.31;;;4.89
80962;BMP280;70424;55.154;14.722;2023-11-21T06:21:35;101551.75;;;4.89
80962;BMP280;70424;55.154;14.722;2023-11-21T06:24:00;101550.06;;;4.86
80962;BMP280;70424;55.154;14.722;2023-11-21T06:26:27;101560.59;;;4.90
80962;BMP280;70424;55.154;14.722;2023-11-21T06:28:52;101568.72;;;4.90
80962;BMP280;70424;55.154;14.722;2023-11-21T06:31:18;101571.00;;;4.86
80962;BMP280;70424;55.154;14.722;2023-11-21T06:33:44;101584.03;;;4.87
80962;BMP280;70424;55.154;14.722;2023-11-21T06:36:09;101592.59;;;4.91
80962;BMP280;70424;55.154;14.722;2023-11-21T06:38:36;101584.75;;;4.88
80962;BMP280;70424;55.154;14.722;2023-11-21T06:41:02;101573.91;;;4.88
80962;BMP280;70424;55.154;14.722;2023-11-21T06:43:27;101579.88;;;4.86
80962;BMP280;70424;55.154;14.722;2023-11-21T06:45:52;101581.41;;;4.82
80962;BMP280;70424;55.154;14.722;2023-11-21T06:48:18;101579.66;;;4.84
80962;BMP280;70424;55.154;14.722;2023-11-21T06:50:43;101587.06;;;4.84
80962;BMP280;70424;55.154;14.722;2023-11-21T06:53:09;101590.25;;;4.82
80962;BMP280;70424;55.154;14.722;2023-11-21T06:55:34;101598.19;;;4.80
80962;BMP280;70424;55.154;14.722;2023-11-21T06:58:00;101605.78;;;4.82
80962;BMP280;70424;55.154;14.722;2023-11-21T07:00:26;101625.47;;;4.82
80962;BMP280;70424;55.154;14.722;2023-11-21T07:02:54;101619.34;;;4.82
80962;BMP280;70424;55.154;14.722;2023-11-21T07:05:21;101632.66;;;4.80
80962;BMP280;70424;55.154;14.722;2023-11-21T07:07:47;101603.41;;;4.65
80962;BMP280;70424;55.154;14.722;2023-11-21T07:10:13;101604.13;;;4.65
80962;BMP280;70424;55.154;14.722;2023-11-21T07:12:39;101622.88;;;4.76
80962;BMP280;70424;55.154;14.722;2023-11-21T07:15:06;101633.84;;;4.71
80962;BMP280;70424;55.154;14.722;2023-11-21T07:17:34;101620.91;;;4.64
80962;BMP280;70424;55.154;14.722;2023-11-21T07:20:00;101634.34;;;4.69
80962;BMP280;70424;55.154;14.722;2023-11-21T07:22:26;101632.38;;;4.70
80962;BMP280;70424;55.154;14.722;2023-11-21T07:24:51;101622.97;;;4.58
80962;BMP280;70424;55.154;14.722;2023-11-21T07:27:17;101631.41;;;4.67
80962;BMP280;70424;55.154;14.722;2023-11-21T07:29:42;101650.81;;;4.71
80962;BMP280;70424;55.154;14.722;2023-11-21T07:32:07;101640.50;;;4.70
80962;BMP280;70424;55.154;14.722;2023-11-21T07:34:34;101625.03;;;4.52
80962;BMP280;70424;55.154;14.722;2023-11-21T07:37:00;101647.38;;;4.71
80962;BMP280;70424;55.154;14.722;2023-11-21T07:39:25;101656.13;;;4.77
80962;BMP280;70424;55.154;14.722;2023-11-21T07:41:50;101652.16;;;4.78
80962;BMP280;70424;55.154;14.722;2023-11-21T07:44:16;101660.59;;;4.74
80962;BMP280;70424;55.154;14.722;2023-11-21T07:46:42;101648.91;;;4.66
80962;BMP280;70424;55.154;14.722;2023-11-21T07:49:08;101654.97;;;4.72
80962;BMP280;70424;55.154;14.722;2023-11-21T07:51:34;101678.50;;;4.77
80962;BMP280;70424;55.154;14.722;2023-11-21T07:53:59;101682.47;;;4.76
80962;BMP280;70424;55.154;14.722;2023-11-21T07:56:25;101675.59;;;4.75
80962;BMP280;70424;55.154;14.722;2023-11-21T07:58:51;101694.25;;;4.79
80962;BMP280;70424;55.154;14.722;2023-11-21T08:01:16;101691.00;;;4.81
80962;BMP280;70424;55.154;14.722;2023-11-21T08:03:41;101689.88;;;4.76
80962;BMP280;70424;55.154;14.722;2023-11-21T08:06:07;101694.97;;;4.80
80962;BMP280;70424;55.154;14.722;2023-11-21T08:08:33;101683.09;;;4.69
80962;BMP280;70424;55.154;14.722;2023-11-21T08:10:58;101697.25;;;4.75
80962;BMP280;70424;55.154;14.722;2023-11-21T08:13:25;101697.47;;;4.77
80962;BMP280;70424;55.154;14.722;2023-11-21T08:15:54;101711.75;;;4.78
80962;BMP280;70424;55.154;14.722;2023-11-21T08:18:21;101684.00;;;4.59
80962;BMP280;70424;55.154;14.722;2023-11-21T08:20:46;101714.25;;;4.76
80962;BMP280;70424;55.154;14.722;2023-11-21T08:23:15;101721.53;;;4.81
80962;BMP280;70424;55.154;14.722;2023-11-21T08:25:43;101724.03;;;4.79
80962;BMP280;70424;55.154;14.722;2023-11-21T08:28:08;101707.56;;;4.64
80962;BMP280;70424;55.154;14.722;2023-11-21T08:30:34;101735.59;;;4.80
80962;BMP280;70424;55.154;14.722;2023-11-21T08:33:00;101721.66;;;4.75
80962;BMP280;70424;55.154;14.722;2023-11-21T08:35:25;101729.78;;;4.75
80962;BMP280;70424;55.154;14.722;2023-11-21T08:37:53;101720.56;;;4.65
80962;BMP280;70424;55.154;14.722;2023-11-21T08:40:20;101751.34;;;4.81
80962;BMP280;70424;55.154;14.722;2023-11-21T08:42:47;101751.34;;;4.81
80962;BMP280;70424;55.154;14.722;2023-11-21T08:45:16;101715.34;;;4.54
80962;BMP280;70424;55.154;14.722;2023-11-21T08:47:42;101744.97;;;4.78
80962;BMP280;70424;55.154;14.722;2023-11-21T08:50:09;101747.78;;;4.73
80962;BMP280;70424;55.154;14.722;2023-11-21T08:52:35;101754.25;;;4.70
80962;BMP280;70424;55.154;14.722;2023-11-21T08:55:02;101778.09;;;4.71
80962;BMP280;70424;55.154;14.722;2023-11-21T08:57:35;101773.41;;;4.72
80962;BMP280;70424;55.154;14.722;2023-11-21T09:00:02;101766.31;;;4.69
80962;BMP280;70424;55.154;14.722;2023-11-21T09:02:27;101765.09;;;4.70
80962;BMP280;70424;55.154;14.722;2023-11-21T09:04:53;101775.19;;;4.69
80962;BMP280;70424;55.154;14.722;2023-11-21T09:07:19;101768.81;;;4.67
80962;BMP280;70424;55.154;14.722;2023-11-21T09:09:48;101778.09;;;4.71
80962;BMP280;70424;55.154;14.722;2023-11-21T09:12:14;101775.91;;;4.70
80962;BMP280;70424;55.154;14.722;2023-11-21T09:14:40;101762.00;;;4.60
80962;BMP280;70424;55.154;14.722;2023-11-21T09:17:05;101782.34;;;4.67
80962;BMP280;70424;55.154;14.722;2023-11-21T09:19:38;101778.69;;;4.64
80962;BMP280;70424;55.154;14.722;2023-11-21T09:22:04;101778.38;;;4.68
80962;BMP280;70424;55.154;14.722;2023-11-21T09:24:31;101782.56;;;4.69
80962;BMP280;70424;55.154;14.722;2023-11-21T09:26:56;101803.63;;;4.76
80962;BMP280;70424;55.154;14.722;2023-11-21T09:29:22;101790.09;;;4.76
80962;BMP280;70424;55.154;14.722;2023-11-21T09:31:47;101792.59;;;4.74
80962;BMP280;70424;55.154;14.722;2023-11-21T09:34:13;101804.56;;;4.78
80962;BMP280;70424;55.154;14.722;2023-11-21T09:36:40;101802.59;;;4.79
80962;BMP280;70424;55.154;14.722;2023-11-21T09:39:06;101776.38;;;4.55
80962;BMP280;70424;55.154;14.722;2023-11-21T09:41:40;101813.44;;;4.79
80962;BMP280;70424;55.154;14.722;2023-11-21T09:44:13;101819.56;;;4.80
80962;BMP280;70424;55.154;14.722;2023-11-21T09:46:42;101825.72;;;4.80
80962;BMP280;70424;55.154;14.722;2023-11-21T09:49:09;101831.44;;;4.76
80962;BMP280;70424;55.154;14.722;2023-11-21T09:51:39;101830.28;;;4.72
80962;BMP280;70424;55.154;14.722;2023-11-21T09:54:07;101831.97;;;4.75
80962;BMP280;70424;55.154;14.722;2023-11-21T09:56:34;101832.69;;;4.75
80962;BMP280;70424;55.154;14.722;2023-11-21T09:59:01;101837.91;;;4.73
80962;BMP280;70424;55.154;14.722;2023-11-21T10:01:32;101839.69;;;4.71
80962;BMP280;70424;55.154;14.722;2023-11-21T10:03:57;101841.13;;;4.72
80962;BMP280;70424;55.154;14.722;2023-11-21T10:06:24;101845.38;;;4.67
80962;BMP280;70424;55.154;14.722;2023-11-21T10:08:51;101851.44;;;4.73
80962;BMP280;70424;55.154;14.722;2023-11-21T10:11:19;101846.09;;;4.68
80962;BMP280;70424;55.154;14.722;2023-11-21T10:13:46;101858.31;;;4.74
80962;BMP280;70424;55.154;14.722;2023-11-21T10:16:14;101858.13;;;4.72
80962;BMP280;70424;55.154;14.722;2023-11-21T10:18:41;101857.59;;;4.74
80962;BMP280;70424;55.154;14.722;2023-11-21T10:21:07;101856.34;;;4.75
80962;BMP280;70424;55.154;14.722;2023-11-21T10:23:34;101857.81;;;4.76
80962;BMP280;70424;55.154;14.722;2023-11-21T10:26:00;101857.81;;;4.76
80962;BMP280;70424;55.154;14.722;2023-11-21T10:28:26;101854.88;;;4.74
80962;BMP280;70424;55.154;14.722;2023-11-21T10:30:51;101855.09;;;4.76
80962;BMP280;70424;55.154;14.722;2023-11-21T10:33:27;101866.16;;;4.78
80962;BMP280;70424;55.154;14.722;2023-11-21T10:35:52;101861.75;;;4.75
80962;BMP280;70424;55.154;14.722;2023-11-21T10:38:20;101858.19;;;4.67
80962;BMP280;70424;55.154;14.722;2023-11-21T10:40:50;101871.56;;;4.78
80962;BMP280;70424;55.154;14.722;2023-11-21T10:43:16;101868.84;;;4.78
80962;BMP280;70424;55.154;14.722;2023-11-21T10:45:42;101871.78;;;4.80
80962;BMP280;70424;55.154;14.722;2023-11-21T10:48:17;101875.22;;;4.81
80962;BMP280;70424;55.154;14.722;2023-11-21T10:50:43;101881.81;;;4.85
80962;BMP280;70424;55.154;14.722;2023-11-21T10:53:09;101883.59;;;4.83
80962;BMP280;70424;55.154;14.722;2023-11-21T10:55:34;101849.63;;;4.63
80962;BMP280;70424;55.154;14.722;2023-11-21T10:58:04;101880.38;;;4.84
80962;BMP280;70424;55.154;14.722;2023-11-21T11:00:32;101889.16;;;4.90
80962;BMP280;70424;55.154;14.722;2023-11-21T11:02:58;101884.47;;;4.91
80962;BMP280;70424;55.154;14.722;2023-11-21T11:05:26;101887.38;;;4.93
80962;BMP280;70424;55.154;14.722;2023-11-21T11:08:04;101878.84;;;4.89
80962;BMP280;70424;55.154;14.722;2023-11-21T11:10:30;101886.19;;;4.88
80962;BMP280;70424;55.154;14.722;2023-11-21T11:12:56;101899.69;;;4.94
80962;BMP280;70424;55.154;14.722;2023-11-21T11:15:27;101865.78;;;4.68
80962;BMP280;70424;55.154;14.722;2023-11-21T11:17:53;101893.53;;;4.93
80962;BMP280;70424;55.154;14.722;2023-11-21T11:20:32;101896.25;;;4.93
80962;BMP280;70424;55.154;14.722;2023-11-21T11:28:32;101903.09;;;4.94
80962;BMP280;70424;55.154;14.722;2023-11-21T11:31:04;101892.50;;;4.96
80962;BMP280;70424;55.154;14.722;2023-11-21T11:33:48;101904.81;;;4.97
80962;BMP280;70424;55.154;14.722;2023-11-21T11:36:26;101912.41;;;4.99
80962;BMP280;70424;55.154;14.722;2023-11-21T11:38:54;101908.44;;;5.00
80962;BMP280;70424;55.154;14.722;2023-11-21T11:41:39;101903.03;;;5.00
80962;BMP280;70424;55.154;14.722;2023-11-21T11:47:15;101921.72;;;5.03
80962;BMP280;70424;55.154;14.722;2023-11-21T11:52:46;101928.09;;;5.06
80962;BMP280;70424;55.154;14.722;2023-11-21T11:55:13;101931.53;;;5.06
80962;BMP280;70424;55.154;14.722;2023-11-21T11:57:40;101942.38;;;5.06
80962;BMP280;70424;55.154;14.722;2023-11-21T12:00:20;101941.13;;;5.07
80962;BMP280;70424;55.154;14.722;2023-11-21T12:02:57;101937.97;;;5.03
80962;BMP280;70424;55.154;14.722;2023-11-21T12:05:25;101931.31;;;5.04
80962;BMP280;70424;55.154;14.722;2023-11-21T12:07:57;101933.00;;;5.07
80962;BMP280;70424;55.154;14.722;2023-11-21T12:10:28;101937.19;;;5.09
80962;BMP280;70424;55.154;14.722;2023-11-21T12:12:58;101932.03;;;5.05
80962;BMP280;70424;55.154;14.722;2023-11-21T12:15:24;101928.41;;;5.02
80962;BMP280;70424;55.154;14.722;2023-11-21T12:17:51;101934.47;;;5.09
80962;BMP280;70424;55.154;14.722;2023-11-21T12:20:21;101930.28;;;5.07
80962;BMP280;70424;55.154;14.722;2023-11-21T12:22:48;101934.47;;;5.09
80962;BMP280;70424;55.154;14.722;2023-11-21T12:25:19;101938.41;;;5.07
80962;BMP280;70424;55.154;14.722;2023-11-21T12:27:49;101930.66;;;4.98
80962;BMP280;70424;55.154;14.722;2023-11-21T12:30:16;101947.69;;;5.12
80962;BMP280;70424;55.154;14.722;2023-11-21T12:32:43;101952.09;;;5.15
80962;BMP280;70424;55.154;14.722;2023-11-21T12:35:09;101945.19;;;5.14
80962;BMP280;70424;55.154;14.722;2023-11-21T12:37:37;101943.53;;;5.11
80962;BMP280;70424;55.154;14.722;2023-11-21T12:40:05;101965.34;;;5.19
80962;BMP280;70424;55.154;14.722;2023-11-21T12:42:42;101950.75;;;5.09
80962;BMP280;70424;55.154;14.722;2023-11-21T12:47:43;101971.66;;;5.27
80962;BMP280;70424;55.154;14.722;2023-11-21T12:50:09;101976.03;;;5.30
80962;BMP280;70424;55.154;14.722;2023-11-21T12:52:45;101970.63;;;5.30
80962;BMP280;70424;55.154;14.722;2023-11-21T12:55:22;101971.81;;;5.34
80962;BMP280;70424;55.154;14.722;2023-11-21T12:57:52;101966.13;;;5.32
80962;BMP280;70424;55.154;14.722;2023-11-21T13:00:26;101972.53;;;5.35
80962;BMP280;70424;55.154;14.722;2023-11-21T13:02:57;101978.44;;;5.33
80962;BMP280;70424;55.154;14.722;2023-11-21T13:05:27;101987.75;;;5.38
80962;BMP280;70424;55.154;14.722;2023-11-21T13:07:54;101993.50;;;5.34
80962;BMP280;70424;55.154;14.722;2023-11-21T13:10:24;101992.66;;;5.40
80962;BMP280;70424;55.154;14.722;2023-11-21T13:12:51;101999.56;;;5.41
80962;BMP280;70424;55.154;14.722;2023-11-21T13:15:17;101998.59;;;5.38
80962;BMP280;70424;55.154;14.722;2023-11-21T13:17:43;101998.59;;;5.38
80962;BMP280;70424;55.154;14.722;2023-11-21T13:20:10;101997.66;;;5.35
80962;BMP280;70424;55.154;14.722;2023-11-21T13:22:45;101995.97;;;5.32
80962;BMP280;70424;55.154;14.722;2023-11-21T13:25:12;101995.69;;;5.36
80962;BMP280;70424;55.154;14.722;2023-11-21T13:27:39;102012.38;;;5.40
80962;BMP280;70424;55.154;14.722;2023-11-21T13:30:06;102010.50;;;5.35
80962;BMP280;70424;55.154;14.722;2023-11-21T13:32:33;102031.38;;;5.40
80962;BMP280;70424;55.154;14.722;2023-11-21T13:34:59;102017.13;;;5.34
80962;BMP280;70424;55.154;14.722;2023-11-21T13:37:25;102045.00;;;5.34
80962;BMP280;70424;55.154;14.722;2023-11-21T13:39:53;102020.16;;;5.30
80962;BMP280;70424;55.154;14.722;2023-11-21T13:42:20;102027.38;;;5.28
80962;BMP280;70424;55.154;14.722;2023-11-21T13:44:48;102009.31;;;5.12
80962;BMP280;70424;55.154;14.722;2023-11-21T13:47:14;102038.91;;;5.28
80962;BMP280;70424;55.154;14.722;2023-11-21T13:49:39;102037.81;;;5.18
80962;BMP280;70424;55.154;14.722;2023-11-21T13:52:06;102051.09;;;5.22
80962;BMP280;70424;55.154;14.722;2023-11-21T13:54:32;102055.28;;;5.23
80962;BMP280;70424;55.154;14.722;2023-11-21T13:56:58;102040.66;;;5.07
80962;BMP280;70424;55.154;14.722;2023-11-21T13:59:25;102057.53;;;5.19
80962;BMP280;70424;55.154;14.722;2023-11-21T14:01:53;102066.38;;;5.19
80962;BMP280;70424;55.154;14.722;2023-11-21T14:04:25;102070.13;;;5.16
80962;BMP280;70424;55.154;14.722;2023-11-21T14:07:04;102080.25;;;5.16
80962;BMP280;70424;55.154;14.722;2023-11-21T14:09:47;102059.47;;;4.99